KRNO/RNO METAR and TAF weather

Enter ICAO airport designator
Station Type Date Time Source
KRNO METAR 2019/08/24 16:55 UTC NOAA

KRNO 241655Z 00000KT 10SM FEW220 27/11 A3010 RMK AO2 SLP127 T02720111


Station Type Date Time Source
KRNO Decoded METAR 2019/08/24 16:55 UTC NOAA

Station name not available
Aug 24, 2019 - 12:55 PM EDT / 2019.08.24 1655 UTC
Wind: Calm:0
Visibility: 10 mile(s):0
Sky conditions: mostly clear
Temperature: 81.0 F (27.2 C)
Dew Point: 52.0 F (11.1 C)
Relative Humidity: 36%
Pressure (altimeter): 30.1 in. Hg (1019 hPa)
ob: KRNO 241655Z 00000KT 10SM FEW220 27/11 A3010 RMK AO2 SLP127 T02720111
cycle: 17

Station Type Date Time Source
KRNO TAF 2019/08/24 18:28 UTC NOAA

TAF KRNO 241726Z 2418/2518 VRB05KT P6SM SKC
FM242100 29015G25KT P6SM SKC
FM250400 30008KT P6SM SKC
FM250700 VRB04KT P6SM SKC

Example: see airport list